createdAt,value
2022-09-30T00:07:42.878Z,7.9
2022-09-30T00:22:53.129Z,11.3
2022-09-30T00:38:02.629Z,7.1
2022-09-30T00:53:12.336Z,7.8
2022-09-30T01:08:21.562Z,7.2
2022-09-30T01:23:30.912Z,7.2
2022-09-30T01:38:40.213Z,7.4
2022-09-30T01:53:49.319Z,7.6
2022-09-30T02:08:58.970Z,7.2
2022-09-30T02:24:08.493Z,7.7
2022-09-30T02:39:18.006Z,8.7
2022-09-30T02:54:27.653Z,8.9
2022-09-30T03:09:36.982Z,9.2
2022-09-30T03:24:46.596Z,9.7
2022-09-30T03:39:56.405Z,9.9
2022-09-30T03:55:06.322Z,9.2
2022-09-30T04:10:16.047Z,9.9
2022-09-30T04:25:25.742Z,9.9
2022-09-30T04:40:35.406Z,10.1
2022-09-30T04:55:44.811Z,9.5
2022-09-30T05:10:54.731Z,9.4
2022-09-30T05:26:05.748Z,9.4
2022-09-30T05:41:22.509Z,9.4
2022-09-30T05:56:31.883Z,11.7
2022-09-30T06:11:41.587Z,12.3
2022-09-30T06:26:51.099Z,11.9
2022-09-30T06:42:01.692Z,12
2022-09-30T06:57:11.459Z,13.4
2022-09-30T07:12:21.829Z,13.2
2022-09-30T07:27:31.457Z,12.3
2022-09-30T07:42:41.548Z,13
2022-09-30T07:57:51.994Z,12.8
2022-09-30T08:13:06.529Z,13.2
2022-09-30T08:28:16.771Z,12.1
2022-09-30T08:43:26.766Z,11.2
2022-09-30T08:58:37.054Z,9.5
2022-09-30T09:13:47.043Z,9.7
2022-09-30T09:28:56.601Z,9.3
2022-09-30T09:44:06.586Z,8.3
2022-09-30T09:59:20.447Z,7.4
2022-09-30T10:14:31.068Z,8.8
2022-09-30T10:29:40.538Z,8
2022-09-30T10:44:50.889Z,9.2
2022-09-30T11:00:03.763Z,8.6
2022-09-30T11:15:13.724Z,8.4
2022-09-30T11:30:23.594Z,6.7
2022-09-30T11:45:33.517Z,6.1
2022-09-30T12:00:47.599Z,5.1
2022-09-30T12:15:58.361Z,5.8
2022-09-30T12:31:07.635Z,5.1
2022-09-30T12:46:17.233Z,4.9
2022-09-30T13:01:27.562Z,4.4
2022-09-30T13:16:37.530Z,3.7
2022-09-30T13:31:47.233Z,4.3
2022-09-30T13:46:58.086Z,4.2
2022-09-30T14:02:06.888Z,4.1
2022-09-30T14:17:15.968Z,3.6
2022-09-30T14:32:25.659Z,3.7
2022-09-30T14:47:35.469Z,2.8
2022-09-30T15:02:45.019Z,3.2
2022-09-30T15:17:54.872Z,2.9
2022-09-30T15:33:03.988Z,3.3
2022-09-30T15:48:13.476Z,2.8
2022-09-30T16:03:22.773Z,2.5
2022-09-30T16:18:35.229Z,6.3
2022-09-30T16:33:44.422Z,3.4
2022-09-30T16:48:54.139Z,2.3
2022-09-30T17:04:03.523Z,3.3
2022-09-30T17:19:13.154Z,3.7
2022-09-30T17:34:22.374Z,4
2022-09-30T17:49:32.093Z,3.9
2022-09-30T18:04:41.275Z,4.9
2022-09-30T18:19:50.884Z,5.6
2022-09-30T18:35:03.508Z,4.9
2022-09-30T18:50:13.325Z,4.9
2022-09-30T19:05:22.825Z,3.7
2022-09-30T19:20:32.372Z,4.2
2022-09-30T19:35:41.894Z,4.1
2022-09-30T19:50:50.967Z,3.7
2022-09-30T20:06:00.032Z,3.7
2022-09-30T20:21:09.257Z,4.1
2022-09-30T20:36:18.826Z,3.8
2022-09-30T20:51:28.508Z,3.9
2022-09-30T21:06:38.490Z,3.7
2022-09-30T21:21:47.187Z,3.7
2022-09-30T21:36:56.229Z,3.8
2022-09-30T21:52:05.764Z,3.7
2022-09-30T22:07:15.137Z,3.4
2022-09-30T22:22:25.156Z,3.8
2022-09-30T22:37:34.418Z,3.3
2022-09-30T22:52:44.190Z,3.2
2022-09-30T23:07:53.620Z,3.6
2022-09-30T23:23:04.689Z,3.1
2022-09-30T23:38:14.112Z,3.4
2022-09-30T23:53:23.614Z,2.7
